Accueil
METAR-TAF:

METAR-TAF

Aéroports :

Ponape, Micronésie

NWS Office

latitude: 06-58N, longitude: 158-13E, altitude: 39 m

Observation

Le bulletin a été fait il y a 54 minutes, à 12:52 UTC
Vent 3 kt de nord/nord-est
Température 26°C
Humidité 94%
Pression 1012 hPa
Visibilité: 24.1 km
Nuages fragmentés à une hauteur de 1800 ft, Cumulus congestus.
Ciel couvert à une hauteur de 30000 ft

METAR: PTTP 211252Z 02003KT 15SM BKN018TCU OVC300 26/25 A2988 RMK SHRAE10 TCU ALQDS SLP117 T02560247 403220233

Heure: 00:46 (13:46 UTC)


TAF: absent

Observations et prévisions météorologiques de plus de 4000 aéroports (messages METAR et TAF).

Les stations disponibles sont représentées par des disques jaunes et rouges sur la carte.

Passer la souris dessus pour voir le nom de la station.

Cliquer dessus pour voir les observations et prévisions météorologiques.

Pour changer de carte: cliquez sur les boutons verts avec une croix noire pour zoomer, sur le bouton vert avec un tiret pour effectuer un zoom arrière, ou sur les flèches vertes pour les cartes adjacentes.


METAR-TAF: